Turley, New Mexico
Current Conditions -  °F | °C
As of 1:53 PM on Saturday 20 Dec 2014 (Local Time) from KFMN Reporting Station
Clear Clear  
Wind Chill: 37°   Ceiling: Unl
Heat Index: 41°   Visibility: 10mi
Dew Point: 27°   Wind: 6mph
Humidity: 57%   Direction: 280°W
Pressure: 30.1"   Gusts: NA
Location:  36.6079°N, 107.734°W
Report Text: KFMN 202053Z 28005KT 10SM CLR 05/M03 A3010 RMK AO2 SLP208 T00501028 56028
Loading
Personal Weather Stations






























Interactive Weather Map New forecast layout! Learn more

10-Day Weather Forecast

Advertisements
Track Severe Weather on mobile